Time;durP1;ratioP1;P1;durP2;ratioP2;P2;SDS_P1;SDS_P2;PMS_P1;PMS_P2;Temp;Humidity;BMP_temperature;BMP_pressure;BME280_temperature;BME280_humidity;BME280_pressure;Samples;Min_cycle;Max_cycle;Signal;HPM_P1;HPM_P2
2022/09/24 00:01:34;;;;;;;6.47;5.97;;;14.90;88.10;;;;;;4980049;28;20307;-91
2022/09/24 00:04:06;;;;;;;6.07;5.60;;;14.90;88.40;;;;;;4994473;28;20664;-91
2022/09/24 00:06:43;;;;;;;5.90;5.47;;;15.00;88.00;;;;;;4991523;28;20270;-90
2022/09/24 00:09:14;;;;;;;5.87;5.47;;;15.20;87.20;;;;;;4989103;28;20209;-90
2022/09/24 00:11:44;;;;;;;6.37;5.73;;;15.20;87.20;;;;;;4987641;28;20245;-91
2022/09/24 00:14:11;;;;;;;6.57;6.03;;;15.10;87.70;;;;;;5000353;28;20551;-91
2022/09/24 00:16:40;;;;;;;6.60;6.10;;;15.10;88.00;;;;;;5000148;28;20552;-91
2022/09/24 00:19:05;;;;;;;6.13;5.70;;;15.10;87.90;;;;;;4996955;28;20210;-91
2022/09/24 00:22:01;;;;;;;6.63;6.00;;;15.10;87.80;;;;;;4989173;28;20224;-90
2022/09/24 00:27:21;;;;;;;5.67;5.27;;;15.10;87.60;;;;;;4995186;28;20691;-90
2022/09/24 00:29:50;;;;;;;6.50;5.90;;;15.00;87.50;;;;;;4996457;28;20198;-91
2022/09/24 00:32:28;;;;;;;6.30;5.80;;;15.00;87.50;;;;;;4991963;28;20312;-91
2022/09/24 00:35:15;;;;;;;;;;;;;;;;;;;;;
2022/09/24 00:37:41;;;;;;;6.27;5.60;;;15.00;87.50;;;;;;4990640;28;20255;-90
2022/09/24 00:40:14;;;;;;;5.87;5.47;;;15.00;87.70;;;;;;4987990;28;20218;-90
2022/09/24 00:42:45;;;;;;;6.40;5.80;;;15.00;87.80;;;;;;4992103;28;20209;-90
2022/09/24 00:45:11;;;;;;;6.23;5.63;;;15.10;87.10;;;;;;4988250;28;20188;-90
2022/09/24 00:47:42;;;;;;;6.73;6.00;;;15.00;87.70;;;;;;4996569;28;20692;-91
2022/09/24 00:50:18;;;;;;;6.07;5.67;;;15.00;88.50;;;;;;4989736;28;20194;-90
2022/09/24 00:53:07;;;;;;;6.13;5.53;;;14.90;88.10;;;;;;4991132;28;20240;-90
2022/09/24 00:55:36;;;;;;;5.93;5.43;;;14.80;88.20;;;;;;5000166;28;20180;-90
2022/09/24 00:58:17;;;;;;;5.90;5.50;;;14.80;88.00;;;;;;4994523;28;20849;-91
2022/09/24 01:03:57;;;;;;;6.50;5.60;;;14.70;88.40;;;;;;4991533;28;20217;-90
2022/09/24 01:06:27;;;;;;;6.80;6.10;;;14.70;87.60;;;;;;4980040;28;20190;-90
2022/09/24 01:08:58;;;;;;;6.93;6.33;;;14.70;87.70;;;;;;4994140;28;20291;-91
2022/09/24 01:11:45;;;;;;;6.00;5.50;;;14.70;87.20;;;;;;4992321;28;20270;-91
2022/09/24 01:14:44;;;;;;;5.63;5.23;;;14.80;87.20;;;;;;4989806;28;20189;-90
2022/09/24 01:17:29;;;;;;;6.47;5.87;;;14.80;86.60;;;;;;4988127;28;20201;-91
2022/09/24 01:20:30;;;;;;;6.13;5.63;;;14.80;87.10;;;;;;5008099;28;20316;-90
2022/09/24 01:23:25;;;;;;;6.47;5.97;;;14.60;87.60;;;;;;5003666;28;20205;-90
2022/09/24 01:26:18;;;;;;;6.57;5.97;;;14.60;87.40;;;;;;4989299;28;20203;-89
2022/09/24 01:29:30;;;;;;;5.87;5.47;;;14.60;87.40;;;;;;4995228;28;20335;-90
2022/09/24 01:32:30;;;;;;;7.00;6.30;;;14.60;87.00;;;;;;4986670;28;20193;-90
2022/09/24 01:35:12;;;;;;;5.93;5.53;;;14.60;87.00;;;;;;4975420;28;20187;-91
2022/09/24 01:37:41;;;;;;;7.47;5.70;;;14.60;87.00;;;;;;4983040;28;20658;-91
2022/09/24 01:40:09;;;;;;;6.37;5.87;;;14.60;87.30;;;;;;4978403;28;20563;-91
2022/09/24 01:42:37;;;;;;;6.50;6.00;;;14.60;87.80;;;;;;5003325;28;20206;-89
2022/09/24 01:45:03;;;;;;;6.80;6.20;;;14.50;87.90;;;;;;5015548;28;20182;-90
2022/09/24 01:47:33;;;;;;;6.33;5.83;;;14.50;88.40;;;;;;5009123;28;20191;-89
2022/09/24 01:49:59;;;;;;;6.70;6.20;;;14.50;89.20;;;;;;4998889;28;20242;-90
2022/09/24 01:52:30;;;;;;;6.13;5.63;;;14.40;90.50;;;;;;4987149;28;20202;-91
2022/09/24 01:54:58;;;;;;;7.43;6.60;;;14.30;90.30;;;;;;4987427;28;20197;-90
2022/09/24 01:57:38;;;;;;;7.30;6.70;;;14.30;89.80;;;;;;4993144;28;20714;-91
2022/09/24 02:00:12;;;;;;;7.17;6.40;;;14.40;90.10;;;;;;4990408;28;20253;-90
2022/09/24 02:02:46;;;;;;;7.10;6.50;;;14.40;90.50;;;;;;4983002;28;20249;-90
2022/09/24 02:05:18;;;;;;;7.30;6.50;;;14.40;90.30;;;;;;4995639;28;20213;-91
2022/09/24 02:07:53;;;;;;;7.80;7.20;;;14.50;90.20;;;;;;4990048;28;20191;-91
2022/09/24 02:10:19;;;;;;;8.07;6.60;;;14.50;91.10;;;;;;4987919;28;20188;-90
2022/09/24 02:12:51;;;;;;;7.50;6.80;;;14.40;89.80;;;;;;4994810;28;20219;-91
2022/09/24 02:15:25;;;;;;;7.90;7.17;;;14.50;89.20;;;;;;4987433;28;20202;-90
2022/09/24 02:17:57;;;;;;;7.50;6.73;;;14.60;89.20;;;;;;4994828;28;20242;-90
2022/09/24 02:20:26;;;;;;;6.20;5.70;;;14.50;89.40;;;;;;4980174;28;20224;-91
2022/09/24 02:22:56;;;;;;;6.73;6.23;;;14.50;88.70;;;;;;4989884;28;20243;-91
2022/09/24 02:25:28;;;;;;;6.47;5.90;;;14.50;89.00;;;;;;4989091;28;20199;-92
2022/09/24 02:27:55;;;;;;;6.67;6.17;;;14.50;89.10;;;;;;5006409;28;20240;-90
2022/09/24 02:30:21;;;;;;;6.27;5.77;;;14.50;89.30;;;;;;4977384;28;21021;-90
2022/09/24 02:32:49;;;;;;;7.40;6.70;;;14.40;88.70;;;;;;4989621;28;20228;-92
2022/09/24 02:35:16;;;;;;;7.40;6.40;;;14.40;89.00;;;;;;4987781;28;20190;-89
2022/09/24 02:37:43;;;;;;;7.37;6.60;;;14.40;88.90;;;;;;4994884;28;20202;-91
2022/09/24 02:40:11;;;;;;;7.47;6.87;;;14.40;89.10;;;;;;4991023;28;20298;-91
2022/09/24 02:42:39;;;;;;;7.60;7.00;;;14.30;89.80;;;;;;4994215;28;20861;-90
2022/09/24 02:45:05;;;;;;;7.23;6.33;;;14.40;89.70;;;;;;4989160;28;20203;-90
2022/09/24 02:47:31;;;;;;;7.10;6.37;;;14.40;89.30;;;;;;4990935;28;20202;-90
2022/09/24 02:49:57;;;;;;;6.87;6.27;;;14.40;89.10;;;;;;4992349;28;20194;-90
2022/09/24 02:52:25;;;;;;;7.57;6.90;;;14.50;88.70;;;;;;4990736;28;20190;-91
2022/09/24 02:54:56;;;;;;;7.10;6.40;;;14.40;89.60;;;;;;4984937;28;20197;-91
2022/09/24 02:57:22;;;;;;;6.40;5.90;;;14.40;89.80;;;;;;5001104;28;20178;-89
2022/09/24 02:59:47;;;;;;;7.93;6.33;;;14.30;89.90;;;;;;5001807;28;20237;-91
2022/09/24 03:02:14;;;;;;;7.57;6.97;;;14.30;90.70;;;;;;5003368;28;20272;-91
2022/09/24 03:04:40;;;;;;;7.13;6.43;;;14.30;91.00;;;;;;4989089;28;20206;-91
2022/09/24 03:07:07;;;;;;;6.70;6.10;;;14.30;90.70;;;;;;4989991;28;20195;-91
2022/09/24 03:09:33;;;;;;;6.43;6.03;;;14.30;90.20;;;;;;5012672;28;20218;-91
2022/09/24 03:12:00;;;;;;;6.77;6.10;;;14.20;90.60;;;;;;4994551;28;20205;-92
2022/09/24 03:14:30;;;;;;;6.80;6.30;;;14.20;90.40;;;;;;4986082;28;20206;-91
2022/09/24 03:16:59;;;;;;;7.07;6.47;;;14.20;90.10;;;;;;4981255;28;20244;-90
2022/09/24 03:19:26;;;;;;;6.27;5.87;;;14.20;90.10;;;;;;4995548;28;20307;-90
2022/09/24 03:21:52;;;;;;;7.37;6.87;;;14.10;90.70;;;;;;4972736;28;20225;-91
2022/09/24 03:24:19;;;;;;;7.13;6.47;;;14.20;90.80;;;;;;4973463;28;20283;-90
2022/09/24 03:26:45;;;;;;;6.87;6.27;;;14.10;91.80;;;;;;4996696;28;20203;-90
2022/09/24 03:29:10;;;;;;;6.80;6.20;;;14.00;91.80;;;;;;4989731;28;20215;-91
2022/09/24 03:31:36;;;;;;;6.77;6.13;;;14.00;91.80;;;;;;4990057;28;20252;-91
2022/09/24 03:34:02;;;;;;;6.87;6.30;;;13.90;91.60;;;;;;4988448;28;20211;-91
2022/09/24 03:36:28;;;;;;;6.67;6.17;;;14.10;91.30;;;;;;4972080;28;20245;-91
2022/09/24 03:38:55;;;;;;;6.57;6.10;;;14.10;91.00;;;;;;4989829;28;20228;-90
2022/09/24 03:41:23;;;;;;;6.70;6.20;;;14.10;90.80;;;;;;4987046;28;20228;-91
2022/09/24 03:43:49;;;;;;;7.63;6.87;;;14.10;90.70;;;;;;5008706;28;20196;-91
2022/09/24 03:46:16;;;;;;;7.13;6.50;;;14.10;91.00;;;;;;4979353;28;20190;-91
2022/09/24 03:48:45;;;;;;;7.17;6.47;;;14.00;91.50;;;;;;4975645;28;20219;-91
2022/09/24 03:51:14;;;;;;;6.80;6.20;;;14.00;91.70;;;;;;4977305;28;20232;-91
2022/09/24 03:53:42;;;;;;;6.97;6.40;;;14.10;91.60;;;;;;4990190;28;20206;-91
2022/09/24 03:56:10;;;;;;;7.50;6.80;;;14.00;91.50;;;;;;4983476;28;20200;-91
2022/09/24 03:58:37;;;;;;;7.20;6.60;;;14.00;91.90;;;;;;4989387;28;20229;-91
2022/09/24 04:01:09;;;;;;;7.00;6.40;;;13.90;92.00;;;;;;4997726;28;20206;-90
2022/09/24 04:03:36;;;;;;;6.80;6.20;;;13.90;91.70;;;;;;4998124;28;20214;-91
2022/09/24 04:06:05;;;;;;;7.60;6.97;;;13.90;91.10;;;;;;4998142;28;20207;-90
2022/09/24 04:08:31;;;;;;;6.50;6.00;;;13.80;91.60;;;;;;4989726;28;20214;-91
2022/09/24 04:10:57;;;;;;;8.40;7.60;;;13.80;91.60;;;;;;4987768;28;20302;-90
2022/09/24 04:13:24;;;;;;;7.63;7.03;;;13.90;91.50;;;;;;4997074;28;20204;-91
2022/09/24 04:15:52;;;;;;;6.83;6.40;;;14.00;91.40;;;;;;4977886;28;20289;-91
2022/09/24 04:18:18;;;;;;;7.23;6.57;;;14.00;90.90;;;;;;4979630;28;20884;-91
2022/09/24 04:20:45;;;;;;;7.83;7.17;;;13.90;90.90;;;;;;4984821;28;20210;-91
2022/09/24 04:23:11;;;;;;;7.60;6.80;;;13.90;91.10;;;;;;4986184;28;20207;-91
2022/09/24 04:25:39;;;;;;;7.57;6.80;;;13.90;91.80;;;;;;4974202;28;20250;-91
2022/09/24 04:28:08;;;;;;;7.80;6.43;;;13.80;91.70;;;;;;4987160;28;20256;-91
2022/09/24 04:30:34;;;;;;;7.17;6.47;;;13.80;92.20;;;;;;4989795;28;20670;-90
2022/09/24 04:33:01;;;;;;;7.10;6.33;;;13.70;92.50;;;;;;4990266;28;20210;-91
2022/09/24 04:35:36;;;;;;;7.00;6.53;;;13.70;92.80;;;;;;4998740;28;20198;-91
2022/09/24 04:38:05;;;;;;;6.80;6.20;;;13.70;93.00;;;;;;4990605;28;20695;-90
2022/09/24 04:40:32;;;;;;;7.73;7.03;;;13.70;93.40;;;;;;4984064;28;20227;-90
2022/09/24 04:42:58;;;;;;;6.97;6.27;;;13.70;93.00;;;;;;4982288;28;20245;-91
2022/09/24 04:45:25;;;;;;;7.03;6.50;;;13.80;92.20;;;;;;4993695;28;20183;-91
2022/09/24 04:47:56;;;;;;;6.90;6.40;;;13.70;92.30;;;;;;4993059;28;20225;-90
2022/09/24 04:50:28;;;;;;;7.03;6.53;;;13.80;92.00;;;;;;4986268;28;20555;-90
2022/09/24 04:52:55;;;;;;;6.83;6.20;;;13.70;90.90;;;;;;4992146;28;20186;-91
2022/09/24 04:55:22;;;;;;;6.53;5.93;;;13.60;91.20;;;;;;4990413;28;20256;-90
2022/09/24 04:57:49;;;;;;;6.10;5.60;;;13.60;91.40;;;;;;4987121;28;20221;-90
2022/09/24 05:00:18;;;;;;;7.17;6.57;;;13.60;91.80;;;;;;4989390;28;20539;-89
2022/09/24 05:02:45;;;;;;;6.93;6.27;;;13.60;92.10;;;;;;4988548;28;20992;-89
2022/09/24 05:05:12;;;;;;;6.70;6.20;;;13.70;91.70;;;;;;4994646;28;20195;-88
2022/09/24 05:07:40;;;;;;;6.57;6.13;;;13.70;91.90;;;;;;5005673;28;20210;-87
2022/09/24 05:10:07;;;;;;;6.57;6.07;;;13.60;92.10;;;;;;5000748;28;20694;-90
2022/09/24 05:12:35;;;;;;;6.80;6.17;;;13.60;91.80;;;;;;4997052;28;20285;-89
2022/09/24 05:15:01;;;;;;;6.90;6.40;;;13.70;91.40;;;;;;4971314;28;20190;-89
2022/09/24 05:17:27;;;;;;;6.00;5.60;;;13.70;91.40;;;;;;4982786;28;20192;-89
2022/09/24 05:19:52;;;;;;;6.60;6.10;;;13.60;91.50;;;;;;4982325;28;20198;-90
2022/09/24 05:22:19;;;;;;;6.57;6.07;;;13.60;91.80;;;;;;4987886;28;20211;-90
2022/09/24 05:24:44;;;;;;;6.60;6.00;;;13.50;91.70;;;;;;4969324;28;20189;-90
2022/09/24 05:27:11;;;;;;;10.27;6.90;;;13.60;91.30;;;;;;4964898;28;20206;-90
2022/09/24 05:29:42;;;;;;;6.90;6.40;;;13.60;90.90;;;;;;4972026;28;20221;-90
2022/09/24 05:32:14;;;;;;;6.77;6.27;;;13.50;91.80;;;;;;4990246;28;20202;-90
2022/09/24 05:34:43;;;;;;;7.00;6.40;;;13.50;92.20;;;;;;4964038;28;20782;-90
2022/09/24 05:37:10;;;;;;;7.23;6.53;;;13.60;91.80;;;;;;4976975;28;20201;-90
2022/09/24 05:39:36;;;;;;;6.93;6.33;;;13.50;92.20;;;;;;4988743;28;20226;-90
2022/09/24 05:42:03;;;;;;;6.40;5.97;;;13.50;92.90;;;;;;4978831;28;20239;-90
2022/09/24 05:44:32;;;;;;;6.60;6.00;;;13.60;92.50;;;;;;4991746;28;20225;-90
2022/09/24 05:46:57;;;;;;;8.37;6.70;;;13.60;92.30;;;;;;5006794;28;20178;-89
2022/09/24 05:49:23;;;;;;;6.43;5.93;;;13.60;92.20;;;;;;5003692;28;20257;-90
2022/09/24 05:51:50;;;;;;;6.70;6.10;;;13.70;91.80;;;;;;4991027;28;20431;-88
2022/09/24 05:54:17;;;;;;;6.97;6.47;;;13.70;92.50;;;;;;5010830;28;20201;-90
2022/09/24 05:56:43;;;;;;;6.57;5.97;;;13.70;91.80;;;;;;4988540;28;20221;-89
2022/09/24 05:59:09;;;;;;;6.87;6.27;;;13.60;93.60;;;;;;4984952;28;20689;-90
2022/09/24 06:01:35;;;;;;;6.60;6.10;;;13.60;92.60;;;;;;4986349;28;20210;-89
2022/09/24 06:04:01;;;;;;;6.63;6.13;;;13.60;93.00;;;;;;4991576;28;20274;-89
2022/09/24 06:06:27;;;;;;;6.30;5.80;;;13.60;93.20;;;;;;5000906;28;20197;-90
2022/09/24 06:08:54;;;;;;;6.20;5.80;;;13.70;92.80;;;;;;4996696;28;20214;-89
2022/09/24 06:11:21;;;;;;;6.27;5.70;;;13.60;93.40;;;;;;4987772;28;20179;-89
2022/09/24 06:13:47;;;;;;;6.93;6.23;;;13.60;93.60;;;;;;4994366;28;20178;-88
2022/09/24 06:16:13;;;;;;;6.03;5.63;;;13.60;93.20;;;;;;4992663;28;20615;-90
2022/09/24 06:18:41;;;;;;;7.07;6.43;;;13.80;93.00;;;;;;4997785;28;20213;-89
2022/09/24 06:21:13;;;;;;;7.43;6.80;;;13.70;93.70;;;;;;4981291;28;20195;-90
2022/09/24 06:23:40;;;;;;;6.60;6.10;;;13.60;94.20;;;;;;4998633;28;20215;-90
2022/09/24 06:26:09;;;;;;;6.50;5.90;;;13.60;94.30;;;;;;4994239;28;20183;-89
2022/09/24 06:28:36;;;;;;;7.53;6.10;;;13.70;93.50;;;;;;4998082;28;20219;-90
2022/09/24 06:31:03;;;;;;;6.27;5.70;;;13.80;93.00;;;;;;4985007;28;20208;-89
2022/09/24 06:33:29;;;;;;;7.27;6.43;;;13.90;92.70;;;;;;4992216;28;20195;-89
2022/09/24 06:35:59;;;;;;;6.97;6.37;;;14.00;92.20;;;;;;4996780;28;20281;-89
2022/09/24 06:38:25;;;;;;;6.97;6.33;;;14.10;92.30;;;;;;4993967;28;20210;-88
2022/09/24 06:40:51;;;;;;;6.80;6.30;;;14.10;92.60;;;;;;4992421;28;20198;-87
2022/09/24 06:43:17;;;;;;;8.50;7.00;;;14.10;92.70;;;;;;4996963;28;20241;-89
2022/09/24 06:45:43;;;;;;;9.70;6.33;;;13.90;94.50;;;;;;4998590;28;20278;-89
2022/09/24 06:48:11;;;;;;;7.97;7.13;;;14.10;93.30;;;;;;4989664;28;20255;-87
2022/09/24 06:50:40;;;;;;;8.87;7.23;;;14.10;93.20;;;;;;4991260;28;20213;-88
2022/09/24 06:53:07;;;;;;;7.80;7.10;;;14.20;94.50;;;;;;4994586;28;20223;-88
2022/09/24 06:55:37;;;;;;;7.37;6.87;;;14.20;95.30;;;;;;4983629;28;20559;-88
2022/09/24 06:58:11;;;;;;;8.00;6.60;;;14.10;96.70;;;;;;4993582;28;20218;-88
2022/09/24 07:00:37;;;;;;;8.30;7.60;;;14.00;97.70;;;;;;4990868;28;20870;-88
2022/09/24 07:03:04;;;;;;;8.20;7.43;;;14.00;97.70;;;;;;4996510;28;20312;-88
2022/09/24 07:05:31;;;;;;;6.90;6.20;;;14.10;98.70;;;;;;4982619;28;20187;-89
2022/09/24 07:07:57;;;;;;;7.07;6.57;;;14.00;98.60;;;;;;4994342;28;20216;-90
2022/09/24 07:10:24;;;;;;;7.13;6.53;;;14.10;98.70;;;;;;5000402;28;20280;-89
2022/09/24 07:12:50;;;;;;;7.67;6.93;;;14.00;99.60;;;;;;5001155;28;20291;-90
2022/09/24 07:15:15;;;;;;;6.83;6.23;;;14.00;99.90;;;;;;4991401;28;20241;-89
2022/09/24 07:17:41;;;;;;;7.43;6.87;;;14.00;99.60;;;;;;4998893;28;20222;-89
2022/09/24 07:20:10;;;;;;;8.40;7.20;;;14.00;99.00;;;;;;4989322;28;20333;-89
2022/09/24 07:22:41;;;;;;;8.97;8.17;;;14.20;98.00;;;;;;4996967;28;20210;-89
2022/09/24 07:25:09;;;;;;;8.53;7.70;;;14.30;98.00;;;;;;5000195;28;20257;-89
2022/09/24 07:27:35;;;;;;;8.73;7.93;;;14.30;98.00;;;;;;4991597;28;20174;-89
2022/09/24 07:30:01;;;;;;;9.23;7.50;;;14.40;97.70;;;;;;4992009;28;20200;-89
2022/09/24 07:32:26;;;;;;;9.10;8.30;;;14.40;97.20;;;;;;4989300;28;20195;-89
2022/09/24 07:34:53;;;;;;;8.07;7.33;;;14.30;97.60;;;;;;4989460;28;20202;-89
2022/09/24 07:37:19;;;;;;;9.20;8.50;;;14.50;97.80;;;;;;4994371;28;20203;-89
2022/09/24 07:39:45;;;;;;;8.20;7.50;;;14.60;97.40;;;;;;5002463;28;20240;-89
2022/09/24 07:42:10;;;;;;;8.67;7.97;;;14.50;97.50;;;;;;4998904;28;20281;-89
2022/09/24 07:44:36;;;;;;;9.20;8.20;;;14.60;98.40;;;;;;4983515;28;20199;-89
2022/09/24 07:47:03;;;;;;;12.47;8.90;;;14.60;98.50;;;;;;4987524;28;20356;-89
2022/09/24 07:49:31;;;;;;;9.33;8.43;;;14.60;98.60;;;;;;4996801;28;20986;-90
2022/09/24 07:51:57;;;;;;;59.87;17.47;;;14.60;97.50;;;;;;4968881;28;20346;-89
2022/09/24 07:54:23;;;;;;;14.20;9.57;;;14.70;97.80;;;;;;4993431;28;20280;-89
2022/09/24 07:56:49;;;;;;;12.83;10.50;;;14.70;97.90;;;;;;4988274;28;20217;-89
2022/09/24 07:59:15;;;;;;;27.67;13.27;;;14.80;97.90;;;;;;4992367;28;20280;-89
2022/09/24 08:01:40;;;;;;;22.97;14.13;;;14.80;97.80;;;;;;4995099;28;20222;-89
2022/09/24 08:04:06;;;;;;;27.00;12.43;;;14.80;97.20;;;;;;4986899;28;20220;-89
2022/09/24 08:06:35;;;;;;;17.53;11.73;;;15.00;96.60;;;;;;4994985;28;20203;-90
2022/09/24 08:09:02;;;;;;;12.73;10.60;;;15.00;95.40;;;;;;4995589;28;20226;-90
2022/09/24 08:11:28;;;;;;;15.50;11.60;;;15.00;94.00;;;;;;4995733;28;20194;-89
2022/09/24 08:13:57;;;;;;;16.97;11.27;;;14.90;93.70;;;;;;4998430;28;20187;-90
2022/09/24 08:16:25;;;;;;;19.20;12.17;;;15.00;92.50;;;;;;4994306;28;20186;-90
2022/09/24 08:18:51;;;;;;;17.90;11.17;;;15.30;91.40;;;;;;4994630;28;20209;-90
2022/09/24 08:21:17;;;;;;;14.43;11.47;;;15.30;92.30;;;;;;4988940;28;20201;-90
2022/09/24 08:23:43;;;;;;;12.53;10.67;;;15.40;92.10;;;;;;4991631;28;20292;-90
2022/09/24 08:26:11;;;;;;;13.17;11.10;;;15.50;89.40;;;;;;4988849;28;20284;-90
2022/09/24 08:28:39;;;;;;;12.07;9.82;;;15.60;89.80;;;;;;4989378;28;20219;-89
2022/09/24 08:31:07;;;;;;;11.50;10.40;;;15.70;90.70;;;;;;4997729;28;20188;-90
2022/09/24 08:33:35;;;;;;;12.02;10.85;;;15.70;89.30;;;;;;4991477;28;20736;-89
2022/09/24 08:36:02;;;;;;;14.13;10.75;;;15.80;88.40;;;;;;4998326;28;20214;-89
2022/09/24 08:38:28;;;;;;;11.68;10.23;;;15.80;87.90;;;;;;4994048;28;20208;-88
2022/09/24 08:41:10;;;;;;;11.55;10.55;;;15.90;87.00;;;;;;5001364;28;20216;-90
2022/09/24 08:47:35;;;;;;;11.82;10.82;;;15.90;88.90;;;;;;4989435;28;20293;-89
2022/09/24 08:50:22;;;;;;;11.93;10.70;;;15.90;89.70;;;;;;4996352;28;20276;-90
2022/09/24 08:53:20;;;;;;;11.40;10.13;;;15.70;90.90;;;;;;4990232;28;20251;-89
2022/09/24 08:55:50;;;;;;;11.87;10.93;;;15.70;91.00;;;;;;4989265;28;20197;-93
2022/09/24 08:58:24;;;;;;;11.20;10.30;;;15.80;90.60;;;;;;4997626;28;20275;-90
2022/09/24 09:01:11;;;;;;;10.67;9.77;;;15.80;87.90;;;;;;4986612;28;20202;-90
2022/09/24 09:03:55;;;;;;;10.02;9.13;;;15.80;87.40;;;;;;4993436;28;20221;-90
2022/09/24 09:06:38;;;;;;;11.23;10.23;;;15.90;87.00;;;;;;4991832;28;20189;-90
2022/09/24 09:09:24;;;;;;;10.43;9.43;;;16.00;87.00;;;;;;4996246;28;20220;-90
2022/09/24 09:12:03;;;;;;;10.18;9.27;;;15.90;87.60;;;;;;5001588;28;20283;-90
2022/09/24 09:14:31;;;;;;;11.45;10.35;;;16.00;87.30;;;;;;4991481;28;20189;-89
2022/09/24 09:17:08;;;;;;;10.50;9.60;;;16.00;87.60;;;;;;4987648;28;20196;-89
2022/09/24 09:19:36;;;;;;;14.85;10.15;;;16.20;88.50;;;;;;4994887;28;20222;-89
2022/09/24 09:22:13;;;;;;;11.73;10.30;;;16.30;88.70;;;;;;4987748;28;20223;-89
2022/09/24 09:24:46;;;;;;;11.40;10.30;;;16.40;88.50;;;;;;4999391;28;20181;-89
2022/09/24 09:27:14;;;;;;;11.85;10.65;;;16.40;88.30;;;;;;4997619;28;20197;-88
2022/09/24 09:29:46;;;;;;;11.57;10.57;;;16.40;87.30;;;;;;4998661;28;20261;-90
2022/09/24 09:32:40;;;;;;;13.25;10.27;;;16.50;88.10;;;;;;4981356;28;20197;-90
2022/09/24 09:35:38;;;;;;;11.48;10.35;;;16.60;87.80;;;;;;5016483;28;20249;-90
2022/09/24 09:38:19;;;;;;;10.65;9.73;;;16.70;87.40;;;;;;4985434;28;20225;-89
2022/09/24 09:41:08;;;;;;;11.25;10.23;;;16.70;87.30;;;;;;5018852;28;20210;-89
2022/09/24 09:43:34;;;;;;;10.70;9.75;;;16.70;87.60;;;;;;5018336;28;20217;-91
2022/09/24 09:46:24;;;;;;;11.25;10.25;;;16.60;88.10;;;;;;4995424;28;20186;-91
2022/09/24 09:48:55;;;;;;;11.15;10.07;;;16.60;88.50;;;;;;5004894;28;20217;-90
2022/09/24 09:51:25;;;;;;;10.52;9.50;;;16.50;89.70;;;;;;4995492;28;20181;-90
2022/09/24 09:53:58;;;;;;;10.43;9.48;;;16.40;89.40;;;;;;5002357;28;20214;-90
2022/09/24 09:56:28;;;;;;;10.00;9.20;;;16.50;88.90;;;;;;5004413;28;20197;-91
2022/09/24 09:59:05;;;;;;;10.95;9.95;;;16.50;89.50;;;;;;4998551;28;20221;-86
2022/09/24 10:01:33;;;;;;;9.65;8.75;;;16.40;90.10;;;;;;4998802;28;20189;-86
2022/09/24 10:04:04;;;;;;;10.35;9.55;;;16.40;91.30;;;;;;4997566;28;20254;-86
2022/09/24 10:06:33;;;;;;;10.52;9.63;;;16.40;91.10;;;;;;5010438;28;20195;-87
2022/09/24 10:09:15;;;;;;;10.00;9.10;;;16.60;91.40;;;;;;4993183;28;20301;-87
2022/09/24 10:11:41;;;;;;;12.38;10.50;;;16.70;92.30;;;;;;4993488;28;20267;-87
2022/09/24 10:14:13;;;;;;;11.77;10.68;;;16.90;93.00;;;;;;5004653;28;20245;-87
2022/09/24 10:16:42;;;;;;;10.82;9.80;;;16.80;92.20;;;;;;4996040;28;20277;-87
2022/09/24 10:19:26;;;;;;;10.43;9.52;;;16.90;91.30;;;;;;5001091;28;20210;-87
2022/09/24 10:21:56;;;;;;;10.50;9.70;;;16.90;92.60;;;;;;4995791;28;20218;-88
2022/09/24 10:24:25;;;;;;;10.70;9.75;;;16.90;92.30;;;;;;4983817;28;20217;-87
2022/09/24 10:26:51;;;;;;;11.85;10.77;;;17.00;89.30;;;;;;4999131;28;20186;-87
2022/09/24 10:32:18;;;;;;;10.98;10.18;;;16.80;92.50;;;;;;5000368;28;20863;-88
2022/09/24 10:35:17;;;;;;;11.23;10.15;;;16.80;93.10;;;;;;4997500;28;20218;-87
2022/09/24 10:37:51;;;;;;;10.95;10.13;;;16.90;91.40;;;;;;4998301;28;20214;-88
2022/09/24 10:40:29;;;;;;;11.65;10.75;;;16.90;92.20;;;;;;4998213;28;20437;-87
2022/09/24 10:43:00;;;;;;;12.40;11.18;;;16.80;92.80;;;;;;5008848;28;20221;-87
2022/09/24 10:45:49;;;;;;;11.10;10.20;;;16.80;92.30;;;;;;4994240;28;20273;-88
2022/09/24 10:48:19;;;;;;;12.93;11.82;;;16.70;92.90;;;;;;5003862;28;20214;-88
2022/09/24 10:50:53;;;;;;;11.63;10.63;;;16.50;93.20;;;;;;5000692;28;20192;-88
2022/09/24 10:53:57;;;;;;;11.63;10.52;;;16.50;94.20;;;;;;4996719;28;20200;-87
2022/09/24 10:56:30;;;;;;;12.18;11.07;;;16.90;93.60;;;;;;5012569;28;20198;-87
2022/09/24 10:58:59;;;;;;;12.43;11.32;;;17.00;92.40;;;;;;5008055;28;20214;-88
2022/09/24 11:01:40;;;;;;;11.43;10.20;;;17.00;93.70;;;;;;5002089;28;20204;-88
2022/09/24 11:04:54;;;;;;;11.52;10.57;;;16.90;94.10;;;;;;5000837;28;20286;-87
2022/09/24 11:07:27;;;;;;;11.73;10.73;;;17.10;94.30;;;;;;4955547;29;20191;-88
2022/09/24 11:10:12;;;;;;;11.65;10.75;;;17.10;94.30;;;;;;4997946;28;20288;-88
2022/09/24 11:12:43;;;;;;;11.10;10.02;;;17.30;93.20;;;;;;4999492;28;20190;-87
2022/09/24 11:15:31;;;;;;;11.88;10.85;;;17.50;92.60;;;;;;4999954;28;20186;-88
2022/09/24 11:18:27;;;;;;;11.48;10.35;;;17.40;93.20;;;;;;4992094;28;20204;-87
2022/09/24 11:21:08;;;;;;;10.35;9.50;;;17.50;92.60;;;;;;4993945;28;20193;-88
2022/09/24 11:23:41;;;;;;;11.32;10.18;;;17.70;90.90;;;;;;5007740;28;20235;-87
2022/09/24 11:26:56;;;;;;;10.77;9.77;;;17.80;91.40;;;;;;5013032;28;20185;-88
2022/09/24 11:29:43;;;;;;;10.80;9.90;;;18.00;94.50;;;;;;4983017;28;20218;-88
2022/09/24 11:32:28;;;;;;;11.57;10.57;;;18.00;91.10;;;;;;4993506;28;20206;-88
2022/09/24 11:35:13;;;;;;;9.98;9.18;;;17.70;93.50;;;;;;5004352;28;20204;-88
2022/09/24 11:37:59;;;;;;;10.13;9.35;;;18.00;91.30;;;;;;5003217;28;20203;-88
2022/09/24 11:40:51;;;;;;;10.52;9.73;;;18.10;93.50;;;;;;4994981;28;20220;-88
2022/09/24 11:43:40;;;;;;;10.98;10.13;;;18.20;92.70;;;;;;5000341;28;20277;-87
2022/09/24 11:46:38;;;;;;;10.48;9.57;;;18.10;93.00;;;;;;5003387;28;20203;-88
2022/09/24 11:49:46;;;;;;;10.80;9.75;;;18.00;95.10;;;;;;4995021;28;20211;-88
2022/09/24 11:52:34;;;;;;;9.82;8.70;;;18.10;93.60;;;;;;4991812;28;20194;-86
2022/09/24 11:55:39;;;;;;;8.93;8.27;;;18.10;96.30;;;;;;4995438;28;20272;-86
2022/09/24 11:58:14;;;;;;;9.80;9.00;;;18.20;95.00;;;;;;5009544;28;20216;-87
2022/09/24 12:00:48;;;;;;;8.95;8.35;;;18.80;92.60;;;;;;4997326;28;20236;-86
2022/09/24 12:03:22;;;;;;;10.18;9.32;;;19.40;90.00;;;;;;4986332;28;20203;-86
2022/09/24 12:06:09;;;;;;;10.13;9.35;;;19.70;89.20;;;;;;4991738;28;20196;-86
2022/09/24 12:08:40;;;;;;;9.80;9.07;;;20.10;89.30;;;;;;4992882;28;20202;-86
2022/09/24 12:11:32;;;;;;;9.63;8.85;;;19.20;89.00;;;;;;4994185;28;20834;-87
2022/09/24 12:14:28;;;;;;;8.63;7.93;;;18.90;91.60;;;;;;4990467;28;20186;-86
2022/09/24 12:17:04;;;;;;;8.32;7.63;;;19.00;92.00;;;;;;4991197;28;20181;-87
2022/09/24 12:19:37;;;;;;;8.70;8.10;;;19.00;91.60;;;;;;4996786;28;20202;-86
2022/09/24 12:22:05;;;;;;;9.02;8.30;;;19.00;95.60;;;;;;4997660;28;20213;-86
2022/09/24 12:24:30;;;;;;;7.85;7.25;;;19.00;93.20;;;;;;4984476;28;21017;-86
2022/09/24 12:27:00;;;;;;;8.15;7.53;;;19.00;92.50;;;;;;4990717;28;20187;-86
2022/09/24 12:33:12;;;;;;;7.63;7.13;;;19.20;93.50;;;;;;4989610;28;20326;-86
2022/09/24 12:35:55;;;;;;;7.18;6.57;;;19.40;91.40;;;;;;4985510;28;20183;-86
2022/09/24 12:38:53;;;;;;;8.20;6.72;;;19.80;89.50;;;;;;4986678;28;20211;-86
2022/09/24 12:41:33;;;;;;;7.00;6.50;;;19.90;88.40;;;;;;5000391;28;20211;-86
2022/09/24 12:43:58;;;;;;;7.00;6.40;;;20.20;85.20;;;;;;4988883;28;20185;-88
2022/09/24 12:46:51;;;;;;;7.95;7.20;;;20.30;85.20;;;;;;5000805;28;20179;-89
2022/09/24 12:49:31;;;;;;;8.63;6.57;;;20.60;84.60;;;;;;4991880;28;20201;-89
2022/09/24 12:52:30;;;;;;;7.00;6.40;;;20.80;82.20;;;;;;4992751;28;20185;-89
2022/09/24 12:55:01;;;;;;;7.00;6.30;;;20.50;82.60;;;;;;4996024;28;20174;-89
2022/09/24 12:57:40;;;;;;;6.80;6.20;;;20.00;84.80;;;;;;4982626;28;20236;-89
2022/09/24 13:00:30;;;;;;;6.90;6.20;;;20.10;83.70;;;;;;4997612;28;20247;-89
2022/09/24 13:02:57;;;;;;;6.38;5.93;;;20.50;85.10;;;;;;5002998;28;20216;-89
2022/09/24 13:05:26;;;;;;;6.53;5.93;;;20.60;82.60;;;;;;4995700;28;20192;-88
2022/09/24 13:08:19;;;;;;;5.53;5.00;;;20.80;81.80;;;;;;4993882;28;20223;-88
2022/09/24 13:10:59;;;;;;;5.90;5.22;;;20.80;80.40;;;;;;5006012;28;20271;-87
2022/09/24 13:13:26;;;;;;;5.55;5.05;;;20.40;81.10;;;;;;5007603;28;20197;-88
2022/09/24 13:16:17;;;;;;;6.32;5.72;;;20.40;83.40;;;;;;5001213;28;20252;-88
2022/09/24 13:18:53;;;;;;;5.40;5.00;;;20.80;80.30;;;;;;4996692;28;20225;-88
2022/09/24 13:21:24;;;;;;;5.70;5.20;;;21.80;74.90;;;;;;4979765;28;20194;-89
2022/09/24 13:23:51;;;;;;;5.18;4.88;;;22.70;70.10;;;;;;4990336;28;20261;-87
2022/09/24 13:26:34;;;;;;;5.05;4.65;;;21.90;69.90;;;;;;5002659;28;20190;-87
2022/09/24 13:29:05;;;;;;;5.10;4.70;;;21.40;72.20;;;;;;5044051;23;20300;-87